< < Back
Terminal Aerodrome Forecast


Current Version              Previous Versions:   1  2  3  4  5  6  7  8  9  

Terminal Aerodrome Forecast

249
FTUS42 KFFC 190800 AAA
TAFATL
TAF AMD
KATL 190800Z 1908/2012 32006KT P6SM FEW150 BKN250
     FM191800 02005KT P6SM OVC120
     FM200300 04005KT P6SM VCSH BKN040 OVC080
     FM200700 06004KT P6SM -SHRA OVC035=



Latest METAR

135
SAUS70 KWBC 190756
MTRATL
METAR KATL 190752Z 31005KT 10SM FEW200 BKN250 04/01 A3012 RMK AO2 SLP203
T00390006


USA.gov is the U.S. government's official web portal to all federal, state and local government web resources and services.